Huvudsida
METAR-TAF:

METAR-TAF

Flygplatser :

Málaga-Costa del Sols flygplats

Málaga, Spanien

latitud: 36-40N, longitud: 004-29W, höjd: 16 m

Aktuellt väderrapport

Denna rapport gjordes för 40 minuter sedan, klockan 17:00 UTC
Vind 6 kt från ost/sydost, varierande mellan ost/nordost och syd/sydost
Temperatur 26°C
Fuktighet 70%
Tryck 1021 hPa
Sikt 10 km eller mer
Inga moln under 1 500 m eller inga cumulonimbus

METAR: LEMG 221700Z 12006KT 070V150 CAVOK 26/20 Q1021 NOSIG

Tid: 19:40 (17:40 UTC)

Väderprognos

Denna rapport gjordes för 40 minuter sedan, klockan 17:00 UTC
Prognos gäller från 22 kl. 18 UTC till 23 kl. 18 UTC
Vind 5 kt från nord/nordväst
Sikt 10 km eller mer
Inga moln under 1 500 m eller inga cumulonimbus
Blir
från 23 kl. 10 UTC till 23 kl. 12 UTC
Vind 9 kt från sydost

TAF: LEMG 221700Z 2218/2318 33005KT CAVOK TX30/2311Z TN19/2304Z BECMG 2310/2312 14009KT

Aktuella väderrapporter och prognoser från 4000 flygplatser (METAR- och TAF-rapporter).

De tillgängliga stationerna syns som gula och röda prickar på kartan.

För musen över prickarna för att se namnen på stationerna.

Klicka sedan för att få väderrapporter och prognoser.

För att ändra kartan: Klicka på de gröna knapparna med ett svart kors på för att zooma in; den gröna knappen med ett streck på för att zooma ut; eller på de gröna pilarna för angränsande kartor.


METAR-TAF: